createdAt,value
2019-05-30T00:02:00.387Z,101304.00
2019-05-30T00:04:30.001Z,101307.00
2019-05-30T00:07:00.558Z,101300.00
2019-05-30T00:09:30.078Z,101309.00
2019-05-30T00:12:00.755Z,101304.00
2019-05-30T00:14:30.321Z,101309.00
2019-05-30T00:17:00.925Z,101308.00
2019-05-30T00:19:33.787Z,101296.00
2019-05-30T00:22:03.717Z,101295.00
2019-05-30T00:24:32.854Z,101295.00
2019-05-30T00:27:02.542Z,101303.00
2019-05-30T00:29:32.073Z,101302.00
2019-05-30T00:32:01.637Z,101306.00
2019-05-30T00:34:31.035Z,101306.00
2019-05-30T00:37:01.970Z,101300.00
2019-05-30T00:39:31.513Z,101306.00
2019-05-30T00:42:02.047Z,101304.00
2019-05-30T00:44:31.593Z,101296.00
2019-05-30T00:47:02.301Z,101306.00
2019-05-30T00:49:31.998Z,101307.00
2019-05-30T00:52:02.646Z,101311.00
2019-05-30T00:54:32.198Z,101301.00
2019-05-30T00:57:02.744Z,101298.00
2019-05-30T00:59:32.290Z,101295.00
2019-05-30T01:02:02.798Z,101297.00
2019-05-30T01:04:32.270Z,101297.00
2019-05-30T01:07:03.096Z,101295.00
2019-05-30T01:09:32.989Z,101300.00
2019-05-30T01:12:03.075Z,101295.00
2019-05-30T01:14:32.568Z,101289.00
2019-05-30T01:17:03.154Z,101290.00
2019-05-30T01:19:32.706Z,101293.00
2019-05-30T01:22:03.336Z,101295.00
2019-05-30T01:24:33.054Z,101303.00
2019-05-30T01:27:03.425Z,101301.00
2019-05-30T01:29:32.988Z,101292.00
2019-05-30T01:32:04.104Z,101306.00
2019-05-30T01:34:33.544Z,101308.00
2019-05-30T01:37:03.756Z,101308.00
2019-05-30T01:39:33.358Z,101309.00
2019-05-30T01:42:03.837Z,101309.00
2019-05-30T01:44:33.458Z,101307.00
2019-05-30T01:47:03.990Z,101307.00
2019-05-30T01:49:33.676Z,101306.00
2019-05-30T01:52:03.114Z,101305.00
2019-05-30T01:54:32.845Z,101305.00
2019-05-30T01:57:02.622Z,101303.00
2019-05-30T01:59:32.125Z,101305.00
2019-05-30T02:02:02.912Z,101307.00
2019-05-30T02:04:32.545Z,101314.00
2019-05-30T02:07:03.206Z,101315.00
2019-05-30T02:09:32.825Z,101313.00
2019-05-30T02:12:03.567Z,101310.00
2019-05-30T02:14:33.134Z,101312.00
2019-05-30T02:17:03.668Z,101317.00
2019-05-30T02:19:33.237Z,101312.00
2019-05-30T02:22:03.761Z,101316.00
2019-05-30T02:24:33.219Z,101324.00
2019-05-30T02:27:02.677Z,101325.00
2019-05-30T02:29:32.155Z,101317.00
2019-05-30T02:32:03.105Z,101323.00
2019-05-30T02:34:32.810Z,101317.00
2019-05-30T02:37:03.341Z,101311.00
2019-05-30T02:39:33.491Z,101319.00
2019-05-30T02:42:03.377Z,101328.00
2019-05-30T02:44:33.236Z,101323.00
2019-05-30T02:47:03.532Z,101331.00
2019-05-30T02:49:33.897Z,101325.00
2019-05-30T02:52:04.895Z,101329.00
2019-05-30T02:54:34.612Z,101331.00
2019-05-30T02:57:05.461Z,101331.00
2019-05-30T02:59:34.967Z,101333.00
2019-05-30T03:02:09.120Z,101336.00
2019-05-30T03:04:35.708Z,101336.00
2019-05-30T03:07:07.079Z,101333.00
2019-05-30T03:09:36.503Z,101347.00
2019-05-30T03:12:08.486Z,101352.00
2019-05-30T03:14:37.544Z,101367.00
2019-05-30T03:17:09.237Z,101363.00
2019-05-30T03:19:38.344Z,101370.00
2019-05-30T03:22:09.560Z,101363.00
2019-05-30T03:24:38.988Z,101367.00
2019-05-30T03:27:09.986Z,101374.00
2019-05-30T03:29:39.599Z,101357.00
2019-05-30T03:32:54.425Z,101368.00
2019-05-30T03:34:43.131Z,101370.00
2019-05-30T03:37:23.166Z,101368.00
2019-05-30T03:39:43.824Z,101373.00
2019-05-30T03:42:15.618Z,101374.00
2019-05-30T03:44:44.510Z,101371.00
2019-05-30T03:47:18.466Z,101378.00
2019-05-30T03:49:50.598Z,101376.00
2019-05-30T03:52:21.992Z,101377.00
2019-05-30T03:54:52.872Z,101368.00
2019-05-30T03:57:32.931Z,101379.00
2019-05-30T04:00:32.728Z,101391.00
2019-05-30T04:03:11.257Z,101395.00
2019-05-30T04:05:48.499Z,101393.00
2019-05-30T04:08:19.852Z,101390.00
2019-05-30T04:10:53.881Z,101396.00
2019-05-30T04:13:42.522Z,101401.00
2019-05-30T04:16:13.605Z,101404.00
2019-05-30T04:18:43.279Z,101404.00
2019-05-30T04:21:14.195Z,101402.00
2019-05-30T04:23:43.934Z,101405.00
2019-05-30T04:26:13.802Z,101412.00
2019-05-30T04:28:43.417Z,101404.00
2019-05-30T04:31:14.407Z,101414.00
2019-05-30T04:33:43.979Z,101418.00
2019-05-30T04:36:14.544Z,101424.00
2019-05-30T04:38:44.234Z,101426.00
2019-05-30T04:41:15.733Z,101426.00
2019-05-30T04:43:44.884Z,101434.00
2019-05-30T04:46:16.431Z,101428.00
2019-05-30T04:48:45.546Z,101430.00
2019-05-30T04:51:16.390Z,101432.00
2019-05-30T04:53:46.138Z,101429.00
2019-05-30T04:56:17.194Z,101433.00
2019-05-30T04:58:46.791Z,101438.00
2019-05-30T05:01:17.697Z,101439.00
2019-05-30T05:03:47.453Z,101437.00
2019-05-30T05:06:17.901Z,101436.00
2019-05-30T05:08:47.603Z,101437.00
2019-05-30T05:11:20.483Z,101431.00
2019-05-30T05:13:48.275Z,101445.00
2019-05-30T05:16:26.046Z,101436.00
2019-05-30T05:18:49.005Z,101442.00
2019-05-30T05:21:18.846Z,101439.00
2019-05-30T05:23:48.419Z,101446.00
2019-05-30T05:26:17.880Z,101439.00
2019-05-30T05:28:47.327Z,101440.00
2019-05-30T05:31:16.785Z,101445.00
2019-05-30T05:33:56.294Z,101450.00
2019-05-30T05:36:17.416Z,101442.00
2019-05-30T05:38:46.882Z,101455.00
2019-05-30T05:41:16.316Z,101441.00
2019-05-30T05:43:45.810Z,101445.00
2019-05-30T05:46:16.425Z,101455.00
2019-05-30T05:48:46.107Z,101454.00
2019-05-30T05:51:16.554Z,101455.00
2019-05-30T05:53:46.015Z,101453.00
2019-05-30T05:56:16.795Z,101448.00
2019-05-30T05:58:46.393Z,101452.00
2019-05-30T06:01:17.137Z,101447.00
2019-05-30T06:03:46.905Z,101457.00
2019-05-30T06:06:17.252Z,101451.00
2019-05-30T06:08:46.815Z,101458.00
2019-05-30T06:11:16.590Z,101464.00
2019-05-30T06:13:46.333Z,101457.00
2019-05-30T06:16:15.864Z,101451.00
2019-05-30T06:18:45.391Z,101454.00
2019-05-30T06:21:14.913Z,101455.00
2019-05-30T06:23:45.886Z,101466.00
2019-05-30T06:26:15.647Z,101467.00
2019-05-30T06:28:45.095Z,101463.00
2019-05-30T06:31:14.568Z,101469.00
2019-05-30T06:33:44.076Z,101468.00
2019-05-30T06:36:13.602Z,101454.00
2019-05-30T06:38:43.044Z,101467.00
2019-05-30T06:41:12.468Z,101470.00
2019-05-30T06:43:41.961Z,101455.00
2019-05-30T06:46:11.444Z,101465.00
2019-05-30T06:48:40.963Z,101464.00
2019-05-30T06:51:10.400Z,101465.00
2019-05-30T06:53:39.852Z,101466.00
2019-05-30T06:56:09.347Z,101471.00
2019-05-30T06:58:48.459Z,101480.00
2019-05-30T07:01:10.163Z,101464.00
2019-05-30T07:03:39.644Z,101464.00
2019-05-30T07:06:09.660Z,101491.00
2019-05-30T07:08:39.446Z,101462.00
2019-05-30T07:11:08.969Z,101484.00
2019-05-30T07:13:38.434Z,101482.00
2019-05-30T07:16:07.951Z,101491.00
2019-05-30T07:18:37.425Z,101485.00
2019-05-30T07:21:07.071Z,101473.00
2019-05-30T07:23:39.255Z,101516.00
2019-05-30T07:26:07.767Z,101508.00
2019-05-30T07:28:37.216Z,101476.00
2019-05-30T07:31:06.669Z,101487.00
2019-05-30T07:33:36.197Z,101476.00
2019-05-30T07:36:06.102Z,101491.00
2019-05-30T07:38:35.576Z,101499.00
2019-05-30T07:41:05.176Z,101508.00
2019-05-30T07:43:35.231Z,101503.00
2019-05-30T07:46:04.856Z,101494.00
2019-05-30T07:48:34.412Z,101472.00
2019-05-30T07:51:03.846Z,101508.00
2019-05-30T07:53:33.301Z,101528.00
2019-05-30T07:56:02.775Z,101478.00
2019-05-30T07:58:33.339Z,101511.00
2019-05-30T08:01:02.938Z,101524.00
2019-05-30T08:03:32.655Z,101523.00
2019-05-30T08:06:02.374Z,101536.00
2019-05-30T08:08:31.931Z,101510.00
2019-05-30T08:11:09.403Z,101532.00
2019-05-30T08:13:33.171Z,101544.00
2019-05-30T08:16:02.696Z,101530.00
2019-05-30T08:18:32.149Z,101545.00
2019-05-30T08:21:01.569Z,101551.00
2019-05-30T08:23:32.049Z,101533.00
2019-05-30T08:26:01.554Z,101546.00
2019-05-30T08:28:32.156Z,101543.00
2019-05-30T08:31:01.742Z,101514.00
2019-05-30T08:33:31.473Z,101511.00
2019-05-30T08:36:01.005Z,101517.00
2019-05-30T08:38:31.001Z,101550.00
2019-05-30T08:41:00.455Z,101529.00
2019-05-30T08:43:29.905Z,101544.00
2019-05-30T08:45:59.378Z,101572.00
2019-05-30T08:48:29.817Z,101559.00
2019-05-30T08:50:59.372Z,101555.00
2019-05-30T08:53:30.138Z,101586.00
2019-05-30T08:55:59.631Z,101534.00
2019-05-30T08:58:30.319Z,101550.00
2019-05-30T09:00:59.905Z,101547.00
2019-05-30T09:03:29.354Z,101568.00
2019-05-30T09:06:03.781Z,101559.00
2019-05-30T09:08:30.020Z,101585.00
2019-05-30T09:10:59.446Z,101545.00
2019-05-30T09:13:28.899Z,101544.00
2019-05-30T09:15:58.400Z,101556.00
2019-05-30T09:18:27.941Z,101574.00
2019-05-30T09:20:57.356Z,101567.00
2019-05-30T09:23:26.839Z,101565.00
2019-05-30T09:25:56.282Z,101563.00
2019-05-30T09:28:25.724Z,101576.00
2019-05-30T09:30:55.185Z,101584.00
2019-05-30T09:33:24.630Z,101580.00
2019-05-30T09:35:54.083Z,101578.00
2019-05-30T09:38:23.536Z,101562.00
2019-05-30T09:40:52.961Z,101562.00
2019-05-30T09:43:22.405Z,101583.00
2019-05-30T09:45:51.885Z,101568.00
2019-05-30T09:48:21.322Z,101572.00
2019-05-30T09:50:51.140Z,101567.00
2019-05-30T09:53:20.598Z,101578.00
2019-05-30T09:55:51.589Z,101589.00
2019-05-30T09:58:21.273Z,101603.00
2019-05-30T10:00:52.178Z,101583.00
2019-05-30T10:03:21.820Z,101581.00
2019-05-30T10:05:52.577Z,101579.00
2019-05-30T10:08:22.179Z,101609.00
2019-05-30T10:10:51.632Z,101601.00
2019-05-30T10:13:21.084Z,101589.00
2019-05-30T10:15:50.576Z,101581.00
2019-05-30T10:18:19.977Z,101568.00
2019-05-30T10:20:50.813Z,101597.00
2019-05-30T10:23:20.601Z,101599.00
2019-05-30T10:25:51.229Z,101591.00
2019-05-30T10:28:33.433Z,101597.00
2019-05-30T10:31:02.885Z,101579.00
2019-05-30T10:33:32.326Z,101589.00
2019-05-30T10:36:01.789Z,101600.00
2019-05-30T10:38:31.233Z,101589.00
2019-05-30T10:41:00.685Z,101565.00
2019-05-30T10:43:30.155Z,101543.00
2019-05-30T10:45:59.599Z,101570.00
2019-05-30T10:48:29.121Z,101566.00
2019-05-30T10:50:58.602Z,101574.00
2019-05-30T10:53:28.051Z,101577.00
2019-05-30T10:55:57.470Z,101571.00
2019-05-30T10:58:26.953Z,101581.00
2019-05-30T11:00:58.404Z,101587.00
2019-05-30T11:03:29.321Z,101563.00
2019-05-30T11:07:01.269Z,101566.00
2019-05-30T11:09:20.150Z,101574.00
2019-05-30T11:11:50.781Z,101562.00
2019-05-30T11:14:20.664Z,101544.00
2019-05-30T11:16:51.656Z,101555.00
2019-05-30T11:19:21.206Z,101573.00
2019-05-30T11:21:52.681Z,101530.00
2019-05-30T11:24:21.842Z,101524.00
2019-05-30T11:26:52.625Z,101559.00
2019-05-30T11:29:22.519Z,101522.00
2019-05-30T11:31:52.920Z,101509.00
2019-05-30T11:34:22.422Z,101513.00
2019-05-30T11:36:53.013Z,101516.00
2019-05-30T11:39:22.525Z,101524.00
2019-05-30T11:41:53.212Z,101514.00
2019-05-30T11:44:22.859Z,101523.00
2019-05-30T11:46:53.432Z,101532.00
2019-05-30T11:49:22.904Z,101517.00
2019-05-30T11:51:53.606Z,101501.00
2019-05-30T11:54:23.213Z,101526.00
2019-05-30T11:56:53.962Z,101516.00
2019-05-30T11:59:23.513Z,101521.00
2019-05-30T12:01:54.498Z,101532.00
2019-05-30T12:04:24.097Z,101524.00
2019-05-30T12:06:54.632Z,101495.00
2019-05-30T12:09:24.187Z,101468.00
2019-05-30T12:11:53.656Z,101483.00
2019-05-30T12:14:23.131Z,101490.00
2019-05-30T12:16:53.195Z,101475.00
2019-05-30T12:19:22.693Z,101474.00
2019-05-30T12:21:52.173Z,101502.00
2019-05-30T12:24:21.603Z,101491.00
2019-05-30T12:26:51.886Z,101470.00
2019-05-30T12:29:21.387Z,101499.00
2019-05-30T12:31:52.011Z,101460.00
2019-05-30T12:34:22.082Z,101487.00
2019-05-30T12:36:52.304Z,101481.00
2019-05-30T12:39:21.873Z,101496.00
2019-05-30T12:41:51.318Z,101489.00
2019-05-30T12:44:21.149Z,101465.00
2019-05-30T12:46:50.589Z,101471.00
2019-05-30T12:49:20.041Z,101454.00
2019-05-30T12:51:49.489Z,101459.00
2019-05-30T12:54:18.918Z,101460.00
2019-05-30T12:56:48.363Z,101456.00
2019-05-30T12:59:17.829Z,101478.00
2019-05-30T13:01:47.259Z,101468.00
2019-05-30T13:04:16.676Z,101449.00
2019-05-30T13:06:46.153Z,101460.00
2019-05-30T13:09:15.598Z,101450.00
2019-05-30T13:11:45.040Z,101439.00
2019-05-30T13:14:14.544Z,101433.00
2019-05-30T13:16:44.105Z,101447.00
2019-05-30T13:19:13.564Z,101439.00
2019-05-30T13:21:43.034Z,101466.00
2019-05-30T13:24:12.459Z,101440.00
2019-05-30T13:26:41.915Z,101439.00
2019-05-30T13:29:11.360Z,101443.00
2019-05-30T13:31:40.808Z,101449.00
2019-05-30T13:34:10.274Z,101445.00
2019-05-30T13:36:41.262Z,101443.00
2019-05-30T13:39:10.751Z,101456.00
2019-05-30T13:41:41.260Z,101451.00
2019-05-30T13:44:10.575Z,101442.00
2019-05-30T13:46:40.022Z,101452.00
2019-05-30T13:49:09.453Z,101464.00
2019-05-30T13:51:38.935Z,101441.00
2019-05-30T13:54:09.339Z,101463.00
2019-05-30T13:56:38.793Z,101453.00
2019-05-30T13:59:08.281Z,101465.00
2019-05-30T14:01:37.898Z,101468.00
2019-05-30T14:04:08.275Z,101448.00
2019-05-30T14:06:37.981Z,101426.00
2019-05-30T14:09:08.564Z,101429.00
2019-05-30T14:11:37.563Z,101449.00
2019-05-30T14:14:06.851Z,101439.00
2019-05-30T14:16:36.406Z,101440.00
2019-05-30T14:19:09.337Z,101437.00
2019-05-30T14:21:37.093Z,101432.00
2019-05-30T14:24:05.838Z,101434.00
2019-05-30T14:26:34.594Z,101438.00
2019-05-30T14:29:05.621Z,101445.00
2019-05-30T14:31:35.139Z,101445.00
2019-05-30T14:34:04.597Z,101443.00
2019-05-30T14:36:34.053Z,101437.00
2019-05-30T14:39:04.813Z,101448.00
2019-05-30T14:41:34.251Z,101417.00
2019-05-30T14:44:03.730Z,101441.00
2019-05-30T14:46:33.182Z,101427.00
2019-05-30T14:49:02.636Z,101433.00
2019-05-30T14:51:35.233Z,101433.00
2019-05-30T14:54:03.320Z,101441.00
2019-05-30T14:56:32.745Z,101447.00
2019-05-30T14:59:02.220Z,101426.00
2019-05-30T15:01:31.644Z,101416.00
2019-05-30T15:04:01.093Z,101391.00
2019-05-30T15:06:30.563Z,101416.00
2019-05-30T15:09:14.389Z,101419.00
2019-05-30T15:11:31.214Z,101430.00
2019-05-30T15:14:00.665Z,101422.00
2019-05-30T15:16:30.121Z,101412.00
2019-05-30T15:18:59.545Z,101410.00
2019-05-30T15:21:29.026Z,101417.00
2019-05-30T15:23:58.548Z,101418.00
2019-05-30T15:26:28.021Z,101438.00
2019-05-30T15:28:57.488Z,101431.00
2019-05-30T15:31:26.972Z,101435.00
2019-05-30T15:33:56.391Z,101442.00
2019-05-30T15:36:25.872Z,101436.00
2019-05-30T15:38:55.320Z,101410.00
2019-05-30T15:41:24.778Z,101401.00
2019-05-30T15:43:54.221Z,101409.00
2019-05-30T15:46:23.686Z,101401.00
2019-05-30T15:48:53.225Z,101413.00
2019-05-30T15:51:22.703Z,101413.00
2019-05-30T15:53:52.149Z,101373.00
2019-05-30T15:56:21.627Z,101389.00
2019-05-30T15:58:51.073Z,101383.00
2019-05-30T16:01:20.562Z,101382.00
2019-05-30T16:03:50.000Z,101385.00
2019-05-30T16:06:20.534Z,101391.00
2019-05-30T16:08:50.325Z,101390.00
2019-05-30T16:11:19.803Z,101395.00
2019-05-30T16:13:49.323Z,101406.00
2019-05-30T16:16:36.126Z,101387.00
2019-05-30T16:18:49.981Z,101402.00
2019-05-30T16:21:20.299Z,101389.00
2019-05-30T16:23:49.895Z,101371.00
2019-05-30T16:26:19.668Z,101367.00
2019-05-30T16:28:49.227Z,101361.00
2019-05-30T16:31:19.819Z,101371.00
2019-05-30T16:33:49.433Z,101373.00
2019-05-30T16:36:20.243Z,101385.00
2019-05-30T16:38:49.741Z,101376.00
2019-05-30T16:41:20.381Z,101361.00
2019-05-30T16:43:50.008Z,101359.00
2019-05-30T16:46:20.553Z,101370.00
2019-05-30T16:48:50.007Z,101371.00
2019-05-30T16:51:20.989Z,101362.00
2019-05-30T16:53:50.639Z,101356.00
2019-05-30T16:56:21.416Z,101358.00
2019-05-30T16:58:51.064Z,101342.00
2019-05-30T17:01:21.934Z,101350.00
2019-05-30T17:03:51.855Z,101349.00
2019-05-30T17:06:22.042Z,101355.00
2019-05-30T17:08:51.593Z,101347.00
2019-05-30T17:11:21.425Z,101341.00
2019-05-30T17:13:50.928Z,101328.00
2019-05-30T17:16:20.365Z,101324.00
2019-05-30T17:18:50.784Z,101316.00
2019-05-30T17:21:21.096Z,101314.00
2019-05-30T17:23:50.639Z,101324.00
2019-05-30T17:26:21.230Z,101336.00
2019-05-30T17:28:50.818Z,101322.00
2019-05-30T17:31:21.938Z,101324.00
2019-05-30T17:33:53.013Z,101316.00
2019-05-30T17:36:22.473Z,101315.00
2019-05-30T17:38:51.917Z,101330.00
2019-05-30T17:41:21.366Z,101323.00
2019-05-30T17:43:51.806Z,101328.00
2019-05-30T17:46:21.343Z,101315.00
2019-05-30T17:48:50.745Z,101314.00
2019-05-30T17:51:20.185Z,101321.00
2019-05-30T17:53:49.638Z,101320.00
2019-05-30T17:56:19.857Z,101317.00
2019-05-30T17:58:49.390Z,101313.00
2019-05-30T18:01:20.371Z,101306.00
2019-05-30T18:03:49.819Z,101307.00
2019-05-30T18:06:20.304Z,101306.00
2019-05-30T18:08:49.912Z,101291.00
2019-05-30T18:11:19.360Z,101295.00
2019-05-30T18:13:48.792Z,101298.00
2019-05-30T18:16:18.256Z,101299.00
2019-05-30T18:18:47.708Z,101296.00
2019-05-30T18:21:17.160Z,101300.00
2019-05-30T18:23:46.621Z,101299.00
2019-05-30T18:26:16.084Z,101306.00
2019-05-30T18:28:45.515Z,101297.00
2019-05-30T18:31:14.992Z,101306.00
2019-05-30T18:33:44.427Z,101299.00
2019-05-30T18:36:13.882Z,101304.00
2019-05-30T18:38:43.539Z,101302.00
2019-05-30T18:41:16.401Z,101308.00
2019-05-30T18:43:44.151Z,101310.00
2019-05-30T18:46:13.641Z,101317.00
2019-05-30T18:48:43.074Z,101305.00
2019-05-30T18:51:12.528Z,101307.00
2019-05-30T18:53:43.161Z,101319.00
2019-05-30T18:56:12.623Z,101312.00
2019-05-30T18:58:42.254Z,101300.00
2019-05-30T19:01:11.726Z,101307.00
2019-05-30T19:03:40.442Z,101314.00
2019-05-30T19:06:09.192Z,101315.00
2019-05-30T19:08:37.959Z,101310.00
2019-05-30T19:11:06.707Z,101325.00
2019-05-30T19:13:35.430Z,101324.00
2019-05-30T19:16:04.409Z,101296.00
2019-05-30T19:18:33.628Z,101296.00
2019-05-30T19:21:02.513Z,101313.00
2019-05-30T19:23:32.058Z,101316.00
2019-05-30T19:26:00.880Z,101322.00
2019-05-30T19:28:30.467Z,101327.00
2019-05-30T19:30:59.372Z,101328.00
2019-05-30T19:33:28.863Z,101317.00
2019-05-30T19:35:57.688Z,101323.00
2019-05-30T19:38:27.198Z,101318.00
2019-05-30T19:40:55.994Z,101318.00
2019-05-30T19:43:24.749Z,101330.00
2019-05-30T19:45:53.536Z,101328.00
2019-05-30T19:48:22.260Z,101335.00
2019-05-30T19:50:51.016Z,101343.00
2019-05-30T19:53:19.825Z,101337.00
2019-05-30T19:55:48.547Z,101331.00
2019-05-30T19:58:17.310Z,101334.00
2019-05-30T20:00:58.183Z,101335.00
2019-05-30T20:03:16.480Z,101327.00
2019-05-30T20:05:45.224Z,101329.00
2019-05-30T20:08:13.984Z,101329.00
2019-05-30T20:10:43.491Z,101335.00
2019-05-30T20:13:12.251Z,101329.00
2019-05-30T20:15:41.734Z,101309.00
2019-05-30T20:18:11.170Z,101316.00
2019-05-30T20:20:53.932Z,101310.00
2019-05-30T20:23:11.870Z,101319.00
2019-05-30T20:25:45.367Z,101281.00
2019-05-30T20:28:12.675Z,101294.00
2019-05-30T20:30:43.231Z,101306.00
2019-05-30T20:33:12.834Z,101318.00
2019-05-30T20:35:43.437Z,101325.00
2019-05-30T20:38:13.155Z,101320.00
2019-05-30T20:40:43.012Z,101290.00
2019-05-30T20:43:12.563Z,101272.00
2019-05-30T20:45:46.934Z,101275.00
2019-05-30T20:48:13.361Z,101290.00
2019-05-30T20:50:43.273Z,101275.00
2019-05-30T20:53:12.850Z,101281.00
2019-05-30T20:55:42.589Z,101285.00
2019-05-30T20:58:12.040Z,101293.00
2019-05-30T21:00:42.227Z,101330.00
2019-05-30T21:03:11.770Z,101337.00
2019-05-30T21:05:44.055Z,101340.00
2019-05-30T21:08:15.600Z,101347.00
2019-05-30T21:10:47.311Z,101347.00
2019-05-30T21:13:18.307Z,101349.00
2019-05-30T21:15:49.610Z,101342.00
2019-05-30T21:18:19.591Z,101346.00
2019-05-30T21:23:20.034Z,101346.00
2019-05-30T21:25:49.485Z,101334.00
2019-05-30T21:28:18.933Z,101334.00
2019-05-30T21:30:48.420Z,101331.00
2019-05-30T21:33:18.010Z,101327.00
2019-05-30T21:35:48.097Z,101326.00
2019-05-30T21:38:17.885Z,101323.00
2019-05-30T21:40:48.566Z,101318.00
2019-05-30T21:43:18.331Z,101326.00
2019-05-30T21:45:49.030Z,101326.00
2019-05-30T21:48:18.550Z,101320.00
2019-05-30T21:50:49.146Z,101317.00
2019-05-30T21:53:19.151Z,101306.00
2019-05-30T21:55:48.588Z,101286.00
2019-05-30T21:58:18.038Z,101307.00
2019-05-30T22:01:13.160Z,101313.00
2019-05-30T22:03:42.840Z,101328.00
2019-05-30T22:06:12.322Z,101319.00
2019-05-30T22:08:43.006Z,101313.00
2019-05-30T22:11:12.510Z,101303.00
2019-05-30T22:13:41.973Z,101314.00
2019-05-30T22:16:11.475Z,101315.00
2019-05-30T22:18:41.886Z,101306.00
2019-05-30T22:21:11.440Z,101292.00
2019-05-30T22:23:42.093Z,101317.00
2019-05-30T22:26:11.630Z,101325.00
2019-05-30T22:28:42.239Z,101323.00
2019-05-30T22:31:11.796Z,101327.00
2019-05-30T22:33:42.544Z,101323.00
2019-05-30T22:36:12.075Z,101330.00
2019-05-30T22:38:42.694Z,101326.00
2019-05-30T22:41:12.255Z,101322.00
2019-05-30T22:43:41.698Z,101318.00
2019-05-30T22:46:11.163Z,101310.00
2019-05-30T22:48:40.617Z,101304.00
2019-05-30T22:51:10.064Z,101306.00
2019-05-30T22:53:39.535Z,101328.00
2019-05-30T22:56:08.987Z,101340.00
2019-05-30T22:58:38.433Z,101345.00
2019-05-30T23:01:07.909Z,101343.00
2019-05-30T23:03:37.365Z,101343.00
2019-05-30T23:06:06.785Z,101341.00
2019-05-30T23:08:36.259Z,101342.00
2019-05-30T23:11:05.711Z,101339.00
2019-05-30T23:13:40.426Z,101340.00
2019-05-30T23:16:06.342Z,101336.00
2019-05-30T23:18:35.811Z,101335.00
2019-05-30T23:21:05.298Z,101337.00
2019-05-30T23:23:34.750Z,101339.00
2019-05-30T23:26:04.192Z,101337.00
2019-05-30T23:28:33.640Z,101338.00
2019-05-30T23:31:03.282Z,101330.00
2019-05-30T23:33:32.728Z,101333.00
2019-05-30T23:36:02.151Z,101329.00
2019-05-30T23:38:31.642Z,101330.00
2019-05-30T23:41:01.063Z,101341.00
2019-05-30T23:43:30.508Z,101336.00
2019-05-30T23:46:00.004Z,101333.00
2019-05-30T23:48:29.447Z,101340.00
2019-05-30T23:50:58.968Z,101340.00
2019-05-30T23:53:29.721Z,101330.00
2019-05-30T23:56:00.527Z,101327.00
2019-05-30T23:58:30.067Z,101323.00
